createdAt,value
2023-02-24T00:02:03.264Z,73.55
2023-02-24T00:07:05.038Z,83.03
2023-02-24T00:12:10.411Z,70.78
2023-02-24T00:17:15.367Z,81.72
2023-02-24T00:22:16.219Z,77.90
2023-02-24T00:27:17.009Z,74.05
2023-02-24T00:32:17.912Z,76.93
2023-02-24T00:37:23.110Z,74.62
2023-02-24T00:42:24.028Z,78.03
2023-02-24T00:47:24.785Z,70.12
2023-02-24T00:52:26.981Z,69.40
2023-02-24T00:57:27.795Z,66.45
2023-02-24T01:02:28.597Z,65.53
2023-02-24T01:07:29.337Z,67.75
2023-02-24T01:12:49.009Z,68.97
2023-02-24T01:17:50.005Z,63.33
2023-02-24T01:22:52.586Z,67.28
2023-02-24T01:27:53.347Z,70.03
2023-02-24T01:32:54.386Z,74.80
2023-02-24T01:37:55.256Z,65.07
2023-02-24T01:42:56.059Z,61.58
2023-02-24T01:48:02.162Z,69.50
2023-02-24T01:53:06.525Z,72.90
2023-02-24T01:58:12.714Z,80.20
2023-02-24T02:03:32.677Z,80.05
2023-02-24T02:08:35.825Z,78.62
2023-02-24T02:18:56.709Z,75.90
2023-02-24T02:24:41.771Z,77.82
2023-02-24T02:31:50.080Z,77.53
2023-02-24T02:37:05.035Z,74.05
2023-02-24T02:43:52.217Z,87.68
2023-02-24T02:48:58.620Z,86.50
2023-02-24T02:54:07.259Z,77.10
2023-02-24T02:59:11.944Z,84.53
2023-02-24T03:04:16.881Z,76.47
2023-02-24T03:09:31.661Z,75.15
2023-02-24T03:14:39.186Z,72.57
2023-02-24T03:19:42.982Z,68.85
2023-02-24T03:24:45.237Z,71.85
2023-02-24T03:30:00.127Z,65.78
2023-02-24T03:35:23.844Z,63.22
2023-02-24T03:40:33.338Z,70.62
2023-02-24T03:45:37.319Z,75.70
2023-02-24T03:50:40.022Z,71.82
2023-02-24T03:57:01.662Z,70.60
2023-02-24T04:02:13.491Z,73.60
2023-02-24T04:07:40.539Z,68.97
2023-02-24T04:12:49.816Z,71.07
2023-02-24T04:17:57.719Z,68.15
2023-02-24T04:23:08.049Z,73.25
2023-02-24T04:28:10.780Z,69.32
2023-02-24T04:33:13.584Z,77.45
2023-02-24T04:38:15.729Z,70.65
2023-02-24T04:43:17.208Z,72.45
2023-02-24T04:48:19.556Z,71.25
2023-02-24T04:53:26.287Z,77.40
2023-02-24T04:58:27.244Z,66.10
2023-02-24T05:03:29.185Z,66.87
2023-02-24T05:08:30.151Z,66.25
2023-02-24T05:13:31.917Z,65.80
2023-02-24T05:18:39.384Z,59.28
2023-02-24T05:23:43.538Z,66.07
2023-02-24T05:28:48.332Z,66.57
2023-02-24T05:33:56.762Z,69.65
2023-02-24T05:38:57.744Z,62.70
2023-02-24T05:44:01.565Z,72.25
2023-02-24T05:49:10.723Z,70.60
2023-02-24T05:54:13.229Z,64.78
2023-02-24T05:59:20.647Z,71.12
2023-02-24T06:04:38.306Z,70.65
2023-02-24T06:09:44.085Z,92.07
2023-02-24T06:14:45.072Z,81.30
2023-02-24T06:19:49.688Z,121.40
2023-02-24T06:24:53.309Z,77.00
2023-02-24T06:29:55.856Z,77.22
2023-02-24T06:34:56.676Z,79.30
2023-02-24T06:40:00.074Z,80.03
2023-02-24T06:45:01.398Z,77.70
2023-02-24T06:50:06.004Z,67.47
2023-02-24T06:55:24.415Z,73.90
2023-02-24T07:00:36.301Z,72.45
2023-02-24T07:05:37.053Z,69.80
2023-02-24T07:10:38.321Z,77.37
2023-02-24T07:15:39.097Z,75.70
2023-02-24T07:20:43.268Z,71.55
2023-02-24T07:25:45.505Z,75.87
2023-02-24T07:30:46.471Z,80.63
2023-02-24T07:35:51.496Z,76.43
2023-02-24T07:40:57.422Z,75.32
2023-02-24T07:46:11.958Z,73.55
2023-02-24T07:51:15.918Z,75.95
2023-02-24T07:56:19.499Z,71.10
2023-02-24T08:01:23.412Z,80.12
2023-02-24T08:06:26.420Z,76.62
2023-02-24T08:11:34.848Z,72.82
2023-02-24T08:16:44.846Z,77.07
2023-02-24T08:21:52.349Z,64.60
2023-02-24T08:27:04.696Z,66.15
2023-02-24T08:32:10.311Z,70.73
2023-02-24T08:37:14.881Z,73.95
2023-02-24T08:42:15.672Z,65.57
2023-02-24T08:47:20.334Z,67.85
2023-02-24T08:52:21.103Z,61.92
2023-02-24T08:57:25.237Z,62.17
2023-02-24T09:02:28.631Z,59.58
2023-02-24T09:07:34.562Z,58.97
2023-02-24T09:12:40.370Z,60.03
2023-02-24T09:17:49.090Z,53.78
2023-02-24T09:23:07.088Z,56.08
2023-02-24T09:28:26.698Z,43.33
2023-02-24T09:33:40.712Z,41.45
2023-02-24T09:42:17.848Z,39.75
2023-02-24T09:47:53.500Z,43.13
2023-02-24T09:53:16.531Z,39.80
2023-02-24T10:00:32.977Z,43.80
2023-02-24T10:05:49.342Z,40.28
2023-02-24T10:11:06.251Z,39.95
2023-02-24T10:16:12.263Z,35.78
2023-02-24T10:21:48.679Z,32.97
2023-02-24T10:27:07.247Z,31.37
2023-02-24T10:32:46.355Z,32.15
2023-02-24T10:37:48.418Z,31.10
2023-02-24T10:42:49.229Z,26.10
2023-02-24T10:47:57.214Z,27.90
2023-02-24T10:53:15.180Z,22.58
2023-02-24T10:58:37.253Z,20.08
2023-02-24T11:04:22.001Z,23.58
2023-02-24T11:09:43.031Z,83.65
2023-02-24T11:15:24.765Z,30.98
2023-02-24T11:20:49.451Z,58.45
2023-02-24T11:25:57.438Z,35.13
2023-02-24T11:34:16.738Z,21.77
2023-02-24T11:39:41.359Z,19.87
2023-02-24T11:45:10.505Z,21.70
2023-02-24T11:51:45.386Z,19.08
2023-02-24T11:56:49.368Z,19.52
2023-02-24T12:01:58.406Z,15.00
2023-02-24T12:08:38.608Z,18.48
2023-02-24T12:13:47.889Z,18.50
2023-02-24T12:18:59.949Z,18.75
2023-02-24T12:24:07.312Z,20.90
2023-02-24T12:29:41.755Z,17.92
2023-02-24T12:38:08.649Z,19.35
2023-02-24T12:44:01.627Z,20.08
2023-02-24T12:49:22.317Z,22.17
2023-02-24T12:56:20.636Z,22.60
2023-02-24T13:01:32.454Z,23.10
2023-02-24T13:07:03.575Z,19.87
2023-02-24T13:13:58.826Z,22.20
2023-02-24T13:19:32.992Z,16.33
2023-02-24T13:24:34.950Z,14.30
2023-02-24T13:29:47.339Z,16.00
2023-02-24T13:34:50.955Z,15.13
2023-02-24T13:39:51.826Z,12.30
2023-02-24T13:45:41.068Z,13.48
2023-02-24T13:52:49.854Z,13.15
2023-02-24T13:58:05.213Z,9.73
2023-02-24T14:03:19.561Z,10.48
2023-02-24T14:08:26.912Z,10.00
2023-02-24T14:13:33.196Z,13.02
2023-02-24T14:18:35.822Z,10.38
2023-02-24T14:23:36.928Z,12.45
2023-02-24T14:28:39.348Z,13.00
2023-02-24T14:33:42.889Z,9.13
2023-02-24T14:38:44.413Z,8.40
2023-02-24T14:43:45.482Z,10.00
2023-02-24T14:48:52.601Z,10.15
2023-02-24T14:53:56.200Z,9.13
2023-02-24T14:59:23.506Z,9.25
2023-02-24T15:04:36.592Z,13.15
2023-02-24T15:09:42.088Z,11.05
2023-02-24T15:14:52.448Z,11.80
2023-02-24T15:19:56.682Z,13.75
2023-02-24T15:25:42.128Z,16.33
2023-02-24T15:31:17.185Z,12.60
2023-02-24T15:36:24.299Z,11.57
2023-02-24T15:41:40.917Z,9.65
2023-02-24T15:46:41.704Z,9.70
2023-02-24T15:51:44.828Z,11.65
2023-02-24T15:56:47.814Z,11.70
2023-02-24T16:06:54.058Z,8.25
2023-02-24T16:11:55.719Z,6.70
2023-02-24T16:16:57.492Z,7.75
2023-02-24T16:21:58.265Z,8.73
2023-02-24T16:26:59.182Z,8.98
2023-02-24T16:32:00.571Z,9.80
2023-02-24T16:37:01.487Z,7.72
2023-02-24T16:42:06.602Z,20.70
2023-02-24T16:47:12.003Z,10.45
2023-02-24T16:52:13.496Z,16.90
2023-02-24T16:57:14.620Z,14.25
2023-02-24T17:02:20.944Z,18.15
2023-02-24T17:07:21.704Z,24.83
2023-02-24T17:12:22.521Z,25.20
2023-02-24T17:17:23.638Z,17.58
2023-02-24T17:22:24.681Z,38.53
2023-02-24T17:27:25.467Z,41.15
2023-02-24T17:32:26.663Z,24.42
2023-02-24T17:37:27.648Z,28.08
2023-02-24T17:42:28.500Z,24.85
2023-02-24T17:47:29.824Z,13.98
2023-02-24T17:52:31.495Z,27.65
2023-02-24T17:57:35.789Z,20.98
2023-02-24T18:02:36.892Z,24.77
2023-02-24T18:07:37.938Z,32.47
2023-02-24T18:12:38.791Z,16.50
2023-02-24T18:17:39.570Z,11.68
2023-02-24T18:22:40.352Z,13.10
2023-02-24T18:27:41.186Z,21.95
2023-02-24T18:32:44.022Z,33.28
2023-02-24T18:37:44.985Z,16.62
2023-02-24T18:42:48.647Z,15.23
2023-02-24T18:47:50.996Z,11.55
2023-02-24T18:52:51.730Z,19.23
2023-02-24T18:57:52.477Z,41.50
2023-02-24T19:02:53.418Z,17.52
2023-02-24T19:07:54.460Z,21.73
2023-02-24T19:12:55.284Z,16.98
2023-02-24T19:17:56.104Z,18.92
2023-02-24T19:22:56.880Z,21.48
2023-02-24T19:27:57.647Z,19.25
2023-02-24T19:32:58.642Z,17.45
2023-02-24T19:37:59.551Z,15.25
2023-02-24T19:43:00.956Z,17.35
2023-02-24T19:48:01.779Z,24.10
2023-02-24T19:53:02.588Z,26.15
2023-02-24T19:58:03.997Z,30.67
2023-02-24T20:03:04.811Z,22.77
2023-02-24T20:08:05.888Z,16.87
2023-02-24T20:13:06.748Z,17.05
2023-02-24T20:18:08.014Z,17.87
2023-02-24T20:23:08.822Z,15.77
2023-02-24T20:28:09.613Z,24.17
2023-02-24T20:33:10.484Z,20.25
2023-02-24T20:38:11.285Z,16.80
2023-02-24T20:43:12.087Z,20.80
2023-02-24T20:48:13.252Z,23.25
2023-02-24T20:53:14.250Z,19.83
2023-02-24T20:58:14.996Z,18.08
2023-02-24T21:03:16.924Z,21.95
2023-02-24T21:08:17.648Z,20.35
2023-02-24T21:13:20.372Z,22.45
2023-02-24T21:18:22.184Z,13.00
2023-02-24T21:23:23.443Z,15.38
2023-02-24T21:28:25.258Z,13.68
2023-02-24T21:33:26.714Z,15.50
2023-02-24T21:38:27.489Z,10.05
2023-02-24T21:43:28.458Z,10.88
2023-02-24T21:48:29.648Z,12.45
2023-02-24T21:53:34.441Z,9.82
2023-02-24T21:58:35.687Z,11.68
2023-02-24T22:03:36.912Z,10.00
2023-02-24T22:08:42.355Z,10.45
2023-02-24T22:13:44.877Z,14.57
2023-02-24T22:18:47.187Z,11.67
2023-02-24T22:23:53.148Z,17.17
2023-02-24T22:28:54.395Z,30.30
2023-02-24T22:33:55.735Z,19.42
2023-02-24T22:38:58.426Z,11.52
2023-02-24T22:44:01.914Z,7.43
2023-02-24T22:49:03.741Z,34.90
2023-02-24T22:54:05.515Z,10.80
2023-02-24T22:59:06.297Z,10.13
2023-02-24T23:04:11.893Z,9.88
2023-02-24T23:09:16.931Z,11.43
2023-02-24T23:14:18.148Z,13.55
2023-02-24T23:19:19.037Z,13.68
2023-02-24T23:24:21.191Z,16.65
2023-02-24T23:29:23.297Z,25.33
2023-02-24T23:34:24.564Z,21.62
2023-02-24T23:39:25.353Z,30.42
2023-02-24T23:44:26.169Z,26.48
2023-02-24T23:49:39.088Z,25.12
2023-02-24T23:54:52.085Z,28.45
2023-02-24T23:59:53.074Z,29.20
